ITY96 LIML-LIPZ
Flight info
| Callsign | ITY96 |
|---|---|
| Flight time | 0h 36m |
| Altitude | 25000 |
| Route | NESTI DCT NOBMI/N0419F240 DCT ADOSA DCT VADIK/N0392F190 M726 ALBET |
| Aircraft | A320/M-SDE3FGHIRWY/LB1 |
Departure
| Time | 2026-04-28 19:15 |
|---|---|
| Airport | Milano Linate Airport (LIML) |
Arrival
| Time | 2026-04-28 19:51 |
|---|---|
| Airport | Venice Marco Polo Airport (LIPZ) |
| Time | Latitude | Longitude | Altitude | Speed | Heading |
|---|---|---|---|---|---|
| 2026-04-28 18:52 | 45.45511 | 9.28073 | 360 ft | 0 kts | 90° |
| 2026-04-28 19:10 | 45.45511 | 9.28098 | 363 ft | 7 kts | 89° |
| 2026-04-28 19:10 | 45.45494 | 9.28149 | 361 ft | 5 kts | 154° |
| 2026-04-28 19:10 | 45.45393 | 9.28149 | 360 ft | 35 kts | 184° |
| 2026-04-28 19:11 | 45.45257 | 9.28060 | 363 ft | 14 kts | 200° |
| 2026-04-28 19:11 | 45.45083 | 9.28061 | 362 ft | 33 kts | 175° |
| 2026-04-28 19:11 | 45.44943 | 9.27991 | 360 ft | 20 kts | 249° |
| 2026-04-28 19:11 | 45.44838 | 9.27943 | 360 ft | 18 kts | 179° |
| 2026-04-28 19:12 | 45.44649 | 9.27960 | 360 ft | 44 kts | 176° |
| 2026-04-28 19:12 | 45.44308 | 9.27996 | 360 ft | 40 kts | 175° |
| 2026-04-28 19:12 | 45.44032 | 9.28026 | 363 ft | 39 kts | 175° |
| 2026-04-28 19:12 | 45.43763 | 9.28055 | 360 ft | 38 kts | 175° |
| 2026-04-28 19:13 | 45.43520 | 9.28082 | 361 ft | 26 kts | 175° |
| 2026-04-28 19:13 | 45.43446 | 9.27992 | 362 ft | 12 kts | 256° |
| 2026-04-28 19:13 | 45.43443 | 9.27953 | 360 ft | 0 kts | 266° |
| 2026-04-28 19:13 | 45.43443 | 9.27951 | 360 ft | 1 kts | 265° |
| 2026-04-28 19:14 | 45.43442 | 9.27929 | 360 ft | 6 kts | 265° |
| 2026-04-28 19:14 | 45.43449 | 9.27846 | 369 ft | 15 kts | 300° |
| 2026-04-28 19:14 | 45.43563 | 9.27809 | 361 ft | 22 kts | 355° |
| 2026-04-28 19:14 | 45.43957 | 9.27764 | 365 ft | 94 kts | 355° |
| 2026-04-28 19:15 | 45.44820 | 9.27671 | 362 ft | 152 kts | 355° |
| 2026-04-28 19:15 | 45.45941 | 9.27573 | 799 ft | 162 kts | 353° |
| 2026-04-28 19:15 | 45.47124 | 9.27547 | 1122 ft | 182 kts | 360° |
| 2026-04-28 19:15 | 45.48004 | 9.27648 | 1317 ft | 200 kts | 3° |
| 2026-04-28 19:16 | 45.50000 | 9.27977 | 1857 ft | 232 kts | 4° |
| 2026-04-28 19:16 | 45.51683 | 9.28269 | 2326 ft | 255 kts | 4° |
| 2026-04-28 19:16 | 45.53432 | 9.28950 | 3100 ft | 268 kts | 25° |
| 2026-04-28 19:16 | 45.55085 | 9.30222 | 4017 ft | 272 kts | 26° |
| 2026-04-28 19:17 | 45.56765 | 9.31510 | 4929 ft | 276 kts | 25° |
| 2026-04-28 19:17 | 45.58470 | 9.32807 | 5817 ft | 280 kts | 25° |
| 2026-04-28 19:17 | 45.60199 | 9.34116 | 6696 ft | 284 kts | 25° |
| 2026-04-28 19:17 | 45.61955 | 9.35442 | 7563 ft | 287 kts | 25° |
| 2026-04-28 19:18 | 45.63733 | 9.36784 | 8413 ft | 291 kts | 25° |
| 2026-04-28 19:18 | 45.65534 | 9.38143 | 9247 ft | 295 kts | 26° |
| 2026-04-28 19:18 | 45.67219 | 9.39873 | 10072 ft | 302 kts | 41° |
| 2026-04-28 19:18 | 45.68622 | 9.42216 | 10510 ft | 322 kts | 52° |
| 2026-04-28 19:19 | 45.69997 | 9.44887 | 10809 ft | 344 kts | 52° |
| 2026-04-28 19:19 | 45.71425 | 9.47693 | 11442 ft | 352 kts | 52° |
| 2026-04-28 19:19 | 45.72863 | 9.50520 | 12162 ft | 357 kts | 52° |
| 2026-04-28 19:19 | 45.74326 | 9.53423 | 12910 ft | 362 kts | 55° |
| 2026-04-28 19:20 | 45.75517 | 9.56617 | 13621 ft | 367 kts | 67° |
| 2026-04-28 19:20 | 45.76245 | 9.60138 | 14318 ft | 372 kts | 79° |
| 2026-04-28 19:20 | 45.76519 | 9.63837 | 15016 ft | 376 kts | 85° |
| 2026-04-28 19:20 | 45.76714 | 9.67587 | 15677 ft | 380 kts | 85° |
| 2026-04-28 19:21 | 45.76910 | 9.71391 | 16317 ft | 384 kts | 85° |
| 2026-04-28 19:21 | 45.77109 | 9.75229 | 16949 ft | 388 kts | 85° |
| 2026-04-28 19:21 | 45.77309 | 9.79094 | 17594 ft | 391 kts | 85° |
| 2026-04-28 19:21 | 45.77512 | 9.82996 | 18218 ft | 394 kts | 85° |
| 2026-04-28 19:22 | 45.77718 | 9.86926 | 18808 ft | 398 kts | 85° |
| 2026-04-28 19:22 | 45.77788 | 9.88259 | 19010 ft | 399 kts | 85° |
| 2026-04-28 19:22 | 45.78132 | 9.94896 | 19954 ft | 405 kts | 85° |
| 2026-04-28 19:22 | 45.78340 | 9.98946 | 20547 ft | 408 kts | 85° |
| 2026-04-28 19:23 | 45.78545 | 10.03007 | 21121 ft | 411 kts | 85° |
| 2026-04-28 19:23 | 45.78682 | 10.05721 | 21476 ft | 413 kts | 86° |
| 2026-04-28 19:23 | 45.78956 | 10.11227 | 22212 ft | 417 kts | 86° |
| 2026-04-28 19:23 | 45.79160 | 10.15399 | 22701 ft | 422 kts | 86° |
| 2026-04-28 19:24 | 45.79290 | 10.18186 | 22983 ft | 425 kts | 86° |
| 2026-04-28 19:24 | 45.79487 | 10.22492 | 23408 ft | 430 kts | 86° |
| 2026-04-28 19:24 | 45.79679 | 10.26784 | 23912 ft | 432 kts | 86° |
| 2026-04-28 19:24 | 45.79849 | 10.31087 | 24433 ft | 434 kts | 89° |
| 2026-04-28 19:25 | 45.79545 | 10.35338 | 24836 ft | 438 kts | 104° |
| 2026-04-28 19:25 | 45.78531 | 10.39463 | 24982 ft | 439 kts | 114° |
| 2026-04-28 19:25 | 45.77328 | 10.43415 | 25012 ft | 427 kts | 115° |
| 2026-04-28 19:25 | 45.76113 | 10.47278 | 25016 ft | 423 kts | 115° |
| 2026-04-28 19:26 | 45.74893 | 10.51087 | 25014 ft | 420 kts | 115° |
| 2026-04-28 19:26 | 45.73671 | 10.54885 | 25008 ft | 420 kts | 116° |
| 2026-04-28 19:26 | 45.72442 | 10.58692 | 25008 ft | 422 kts | 115° |
| 2026-04-28 19:26 | 45.71221 | 10.62496 | 25002 ft | 420 kts | 115° |
| 2026-04-28 19:27 | 45.70003 | 10.66317 | 25016 ft | 428 kts | 115° |
| 2026-04-28 19:27 | 45.68765 | 10.70210 | 25016 ft | 431 kts | 115° |
| 2026-04-28 19:27 | 45.67537 | 10.74073 | 25012 ft | 431 kts | 115° |
| 2026-04-28 19:27 | 45.66298 | 10.77982 | 25011 ft | 433 kts | 115° |
| 2026-04-28 19:28 | 45.65048 | 10.81919 | 25008 ft | 436 kts | 115° |
| 2026-04-28 19:28 | 45.63805 | 10.85822 | 24976 ft | 423 kts | 115° |
| 2026-04-28 19:28 | 45.62600 | 10.89592 | 24849 ft | 409 kts | 115° |
| 2026-04-28 19:28 | 45.61475 | 10.93094 | 24590 ft | 401 kts | 115° |
| 2026-04-28 19:29 | 45.60314 | 10.96692 | 24180 ft | 396 kts | 116° |
| 2026-04-28 19:29 | 45.59555 | 10.99045 | 23882 ft | 394 kts | 116° |
| 2026-04-28 19:29 | 45.58027 | 11.03777 | 23299 ft | 390 kts | 116° |
| 2026-04-28 19:29 | 45.56893 | 11.07280 | 22851 ft | 387 kts | 116° |
| 2026-04-28 19:30 | 45.55765 | 11.10761 | 22410 ft | 385 kts | 116° |
| 2026-04-28 19:30 | 45.54649 | 11.14202 | 21978 ft | 382 kts | 116° |
| 2026-04-28 19:30 | 45.53536 | 11.17641 | 21559 ft | 379 kts | 116° |
| 2026-04-28 19:30 | 45.52434 | 11.21040 | 21136 ft | 377 kts | 116° |
| 2026-04-28 19:31 | 45.51335 | 11.24418 | 20715 ft | 374 kts | 116° |
| 2026-04-28 19:31 | 45.50243 | 11.27762 | 20316 ft | 371 kts | 116° |
| 2026-04-28 19:31 | 45.49158 | 11.31087 | 19892 ft | 369 kts | 116° |
| 2026-04-28 19:31 | 45.48081 | 11.34386 | 19471 ft | 367 kts | 116° |
| 2026-04-28 19:32 | 45.47012 | 11.37651 | 19060 ft | 364 kts | 116° |
| 2026-04-28 19:32 | 45.45947 | 11.40906 | 18680 ft | 361 kts | 116° |
| 2026-04-28 19:32 | 45.44885 | 11.44147 | 18282 ft | 359 kts | 116° |
| 2026-04-28 19:32 | 45.43832 | 11.47354 | 17891 ft | 357 kts | 116° |
| 2026-04-28 19:33 | 45.42717 | 11.50493 | 17487 ft | 354 kts | 124° |
| 2026-04-28 19:33 | 45.41208 | 11.53234 | 17094 ft | 350 kts | 134° |
| 2026-04-28 19:33 | 45.39581 | 11.55805 | 16702 ft | 348 kts | 134° |
| 2026-04-28 19:33 | 45.37966 | 11.58358 | 16328 ft | 346 kts | 134° |
| 2026-04-28 19:34 | 45.36371 | 11.60911 | 15950 ft | 345 kts | 130° |
| 2026-04-28 19:34 | 45.35131 | 11.63811 | 15579 ft | 344 kts | 113° |
| 2026-04-28 19:34 | 45.34511 | 11.67088 | 15198 ft | 344 kts | 96° |
| 2026-04-28 19:34 | 45.34528 | 11.70474 | 14809 ft | 342 kts | 85° |
| 2026-04-28 19:35 | 45.34694 | 11.73842 | 14423 ft | 341 kts | 85° |
| 2026-04-28 19:35 | 45.34855 | 11.77198 | 14050 ft | 339 kts | 86° |
| 2026-04-28 19:35 | 45.34954 | 11.80529 | 13772 ft | 334 kts | 94° |
| 2026-04-28 19:35 | 45.34510 | 11.83697 | 13540 ft | 321 kts | 111° |
| 2026-04-28 19:36 | 45.33483 | 11.86456 | 12966 ft | 314 kts | 129° |
| 2026-04-28 19:36 | 45.32084 | 11.88691 | 12658 ft | 298 kts | 137° |
| 2026-04-28 19:36 | 45.30433 | 11.90276 | 12279 ft | 281 kts | 166° |
| 2026-04-28 19:36 | 45.28555 | 11.90455 | 11756 ft | 267 kts | 197° |
| 2026-04-28 19:37 | 45.26942 | 11.89308 | 11180 ft | 258 kts | 223° |
| 2026-04-28 19:37 | 45.26030 | 11.88169 | 10755 ft | 258 kts | 224° |
| 2026-04-28 19:37 | 45.24260 | 11.85925 | 10002 ft | 257 kts | 224° |
| 2026-04-28 19:37 | 45.22929 | 11.84241 | 9442 ft | 255 kts | 224° |
| 2026-04-28 19:38 | 45.21608 | 11.82577 | 8878 ft | 252 kts | 224° |
| 2026-04-28 19:38 | 45.20300 | 11.80936 | 8313 ft | 250 kts | 224° |
| 2026-04-28 19:38 | 45.19003 | 11.79308 | 7741 ft | 248 kts | 224° |
| 2026-04-28 19:38 | 45.17716 | 11.77694 | 7158 ft | 246 kts | 224° |
| 2026-04-28 19:39 | 45.16440 | 11.76094 | 6591 ft | 244 kts | 224° |
| 2026-04-28 19:39 | 45.15173 | 11.74511 | 6104 ft | 239 kts | 224° |
| 2026-04-28 19:39 | 45.13919 | 11.72947 | 5996 ft | 241 kts | 224° |
| 2026-04-28 19:39 | 45.12644 | 11.71435 | 6000 ft | 235 kts | 214° |
| 2026-04-28 19:40 | 45.11114 | 11.70786 | 6007 ft | 237 kts | 181° |
| 2026-04-28 19:40 | 45.09550 | 11.71502 | 6009 ft | 244 kts | 144° |
| 2026-04-28 19:40 | 45.08351 | 11.73226 | 6005 ft | 248 kts | 134° |
| 2026-04-28 19:40 | 45.07233 | 11.75099 | 6004 ft | 249 kts | 124° |
| 2026-04-28 19:41 | 45.06703 | 11.77409 | 6010 ft | 251 kts | 90° |
| 2026-04-28 19:41 | 45.07097 | 11.79767 | 6010 ft | 248 kts | 57° |
| 2026-04-28 19:41 | 45.08263 | 11.81518 | 6013 ft | 244 kts | 33° |
| 2026-04-28 19:41 | 45.09601 | 11.83012 | 5839 ft | 245 kts | 37° |
| 2026-04-28 19:42 | 45.10873 | 11.84607 | 5488 ft | 244 kts | 39° |
| 2026-04-28 19:42 | 45.12109 | 11.86212 | 5149 ft | 243 kts | 40° |
| 2026-04-28 19:42 | 45.13354 | 11.87835 | 4816 ft | 242 kts | 40° |
| 2026-04-28 19:42 | 45.14193 | 11.88924 | 4588 ft | 241 kts | 39° |
| 2026-04-28 19:43 | 45.15834 | 11.91032 | 4152 ft | 239 kts | 39° |
| 2026-04-28 19:43 | 45.17071 | 11.92605 | 3823 ft | 238 kts | 39° |
| 2026-04-28 19:43 | 45.18303 | 11.94164 | 3506 ft | 237 kts | 39° |
| 2026-04-28 19:43 | 45.19521 | 11.95701 | 3371 ft | 232 kts | 39° |
| 2026-04-28 19:44 | 45.20740 | 11.97237 | 3378 ft | 235 kts | 39° |
| 2026-04-28 19:44 | 45.21971 | 11.98777 | 3382 ft | 236 kts | 39° |
| 2026-04-28 19:44 | 45.23207 | 12.00331 | 3381 ft | 237 kts | 39° |
| 2026-04-28 19:44 | 45.24439 | 12.01892 | 3381 ft | 237 kts | 39° |
| 2026-04-28 19:45 | 45.25666 | 12.03449 | 3381 ft | 237 kts | 39° |
| 2026-04-28 19:45 | 45.26879 | 12.04990 | 3380 ft | 237 kts | 39° |
| 2026-04-28 19:45 | 45.28121 | 12.06568 | 3381 ft | 237 kts | 39° |
| 2026-04-28 19:45 | 45.29333 | 12.08108 | 3381 ft | 237 kts | 39° |
| 2026-04-28 19:46 | 45.30580 | 12.09695 | 3381 ft | 237 kts | 39° |
| 2026-04-28 19:46 | 45.31786 | 12.11230 | 3380 ft | 237 kts | 39° |
| 2026-04-28 19:46 | 45.33010 | 12.12789 | 3380 ft | 236 kts | 39° |
| 2026-04-28 19:46 | 45.34234 | 12.14349 | 3381 ft | 236 kts | 39° |
| 2026-04-28 19:47 | 45.35454 | 12.15904 | 3380 ft | 236 kts | 39° |
| 2026-04-28 19:47 | 45.36676 | 12.17463 | 3273 ft | 236 kts | 39° |
| 2026-04-28 19:47 | 45.37878 | 12.18999 | 3026 ft | 225 kts | 39° |
| 2026-04-28 19:47 | 45.38998 | 12.20432 | 2754 ft | 210 kts | 39° |
| 2026-04-28 19:48 | 45.40047 | 12.21773 | 2466 ft | 194 kts | 39° |
| 2026-04-28 19:48 | 45.40995 | 12.22987 | 2234 ft | 175 kts | 39° |
| 2026-04-28 19:48 | 45.41855 | 12.24086 | 2002 ft | 161 kts | 38° |
| 2026-04-28 19:48 | 45.42682 | 12.25143 | 1793 ft | 155 kts | 38° |
| 2026-04-28 19:49 | 45.43469 | 12.26150 | 1598 ft | 153 kts | 38° |
| 2026-04-28 19:49 | 45.44258 | 12.27160 | 1398 ft | 152 kts | 39° |
| 2026-04-28 19:49 | 45.45042 | 12.28164 | 1192 ft | 151 kts | 38° |
| 2026-04-28 19:49 | 45.45830 | 12.29174 | 989 ft | 150 kts | 39° |
| 2026-04-28 19:50 | 45.47366 | 12.31144 | 595 ft | 149 kts | 39° |
| 2026-04-28 19:50 | 45.48137 | 12.32133 | 396 ft | 148 kts | 39° |
| 2026-04-28 19:50 | 45.48899 | 12.33111 | 201 ft | 147 kts | 39° |
| 2026-04-28 19:51 | 45.49653 | 12.34079 | 25 ft | 144 kts | 41° |
| 2026-04-28 19:51 | 45.50294 | 12.34904 | 14 ft | 98 kts | 42° |
| 2026-04-28 19:51 | 45.50676 | 12.35374 | 15 ft | 38 kts | 31° |
| 2026-04-28 19:51 | 45.50803 | 12.35421 | 16 ft | 11 kts | 15° |
| 2026-04-28 19:52 | 45.50868 | 12.35446 | 16 ft | 9 kts | 14° |
| 2026-04-28 19:52 | 45.50918 | 12.35441 | 18 ft | 6 kts | 330° |
| 2026-04-28 19:52 | 45.50958 | 12.35302 | 17 ft | 31 kts | 285° |
| 2026-04-28 19:52 | 45.50847 | 12.35062 | 16 ft | 31 kts | 222° |
| 2026-04-28 19:53 | 45.50692 | 12.34866 | 16 ft | 17 kts | 221° |
| 2026-04-28 19:53 | 45.50642 | 12.34729 | 15 ft | 17 kts | 298° |
| 2026-04-28 19:53 | 45.50727 | 12.34597 | 15 ft | 19 kts | 313° |
| 2026-04-28 19:53 | 45.50819 | 12.34453 | 15 ft | 21 kts | 312° |
| 2026-04-28 19:54 | 45.50906 | 12.34288 | 15 ft | 21 kts | 272° |
| 2026-04-28 19:54 | 45.50820 | 12.34154 | 15 ft | 7 kts | 221° |
| 2026-04-28 19:54 | 45.50778 | 12.34134 | 15 ft | 6 kts | 169° |
| 2026-04-28 19:54 | 45.50751 | 12.34166 | 15 ft | 4 kts | 135° |
| 2026-04-28 19:55 | 45.50732 | 12.34195 | 15 ft | 4 kts | 133° |
| 2026-04-28 19:55 | 45.50717 | 12.34218 | 15 ft | 3 kts | 130° |
| 2026-04-28 19:55 | 45.50707 | 12.34251 | 15 ft | 6 kts | 98° |
| 2026-04-28 19:55 | 45.50717 | 12.34316 | 15 ft | 0 kts | 76° |
| 2026-04-28 19:56 | 45.50718 | 12.34322 | 15 ft | 2 kts | 76° |
| 2026-04-28 19:56 | 45.50720 | 12.34338 | 16 ft | 0 kts | 76° |